UAL201 PHNL-PGUM
Flight info
| Callsign | UAL201 |
|---|---|
| Flight time | N/A |
| Altitude | 36000 |
| Route | KEOLA3 NONNI BRIUN A450 DEWSS |
| Aircraft | B77W/H-SDE1E2E3FGHIJ2J3J4J5M1RWXY/LB1D1 |
Departure
| Time | N/A |
|---|---|
| Airport | Daniel K. Inouye International Airport (PHNL) |
Arrival
| Time | 2026-04-20 21:57 |
|---|---|
| Airport | Antonio B. Won Pat International Airport (PGUM) |
| Time | Latitude | Longitude | Altitude | Speed | Heading |
|---|---|---|---|---|---|
| 2026-04-20 21:36 | 14.13592 | 146.72534 | 35688 ft | 464 kts | 251° |
| 2026-04-20 21:37 | 14.12540 | 146.69380 | 34757 ft | 467 kts | 251° |
| 2026-04-20 21:37 | 14.11495 | 146.66249 | 33902 ft | 469 kts | 251° |
| 2026-04-20 21:37 | 14.10440 | 146.63089 | 33100 ft | 469 kts | 252° |
| 2026-04-20 21:37 | 14.09382 | 146.59920 | 32299 ft | 469 kts | 252° |
| 2026-04-20 21:38 | 14.08318 | 146.56735 | 31471 ft | 470 kts | 252° |
| 2026-04-20 21:38 | 14.07254 | 146.53551 | 30633 ft | 476 kts | 252° |
| 2026-04-20 21:38 | 14.06177 | 146.50331 | 30105 ft | 479 kts | 252° |
| 2026-04-20 21:38 | 14.05091 | 146.47084 | 29605 ft | 480 kts | 252° |
| 2026-04-20 21:39 | 14.04018 | 146.43881 | 29064 ft | 477 kts | 252° |
| 2026-04-20 21:39 | 14.02934 | 146.40645 | 28496 ft | 473 kts | 252° |
| 2026-04-20 21:39 | 14.01880 | 146.37501 | 27943 ft | 468 kts | 252° |
| 2026-04-20 21:39 | 14.00820 | 146.34340 | 27385 ft | 464 kts | 252° |
| 2026-04-20 21:40 | 13.99775 | 146.31223 | 26821 ft | 460 kts | 252° |
| 2026-04-20 21:40 | 13.98739 | 146.28137 | 26253 ft | 456 kts | 252° |
| 2026-04-20 21:40 | 13.97707 | 146.25063 | 25682 ft | 452 kts | 252° |
| 2026-04-20 21:40 | 13.96691 | 146.22038 | 25108 ft | 449 kts | 252° |
| 2026-04-20 21:41 | 13.95680 | 146.19029 | 24537 ft | 445 kts | 252° |
| 2026-04-20 21:41 | 13.94667 | 146.16016 | 23963 ft | 441 kts | 252° |
| 2026-04-20 21:41 | 13.93671 | 146.13055 | 23392 ft | 438 kts | 252° |
| 2026-04-20 21:41 | 13.92688 | 146.10135 | 22833 ft | 435 kts | 253° |
| 2026-04-20 21:42 | 13.91694 | 146.07182 | 22250 ft | 432 kts | 253° |
| 2026-04-20 21:42 | 13.90723 | 146.04297 | 21696 ft | 429 kts | 252° |
| 2026-04-20 21:42 | 13.89757 | 146.01430 | 21135 ft | 426 kts | 252° |
| 2026-04-20 21:42 | 13.88780 | 145.98532 | 20548 ft | 424 kts | 252° |
| 2026-04-20 21:43 | 13.87824 | 145.95695 | 19967 ft | 422 kts | 252° |
| 2026-04-20 21:43 | 13.86872 | 145.92873 | 19393 ft | 420 kts | 252° |
| 2026-04-20 21:43 | 13.85913 | 145.90030 | 18801 ft | 417 kts | 251° |
| 2026-04-20 21:43 | 13.84963 | 145.87218 | 18217 ft | 415 kts | 251° |
| 2026-04-20 21:44 | 13.84025 | 145.84441 | 17638 ft | 413 kts | 251° |
| 2026-04-20 21:44 | 13.83086 | 145.81662 | 17043 ft | 410 kts | 251° |
| 2026-04-20 21:44 | 13.82161 | 145.78925 | 16461 ft | 408 kts | 251° |
| 2026-04-20 21:44 | 13.81228 | 145.76167 | 15874 ft | 405 kts | 251° |
| 2026-04-20 21:45 | 13.80306 | 145.73444 | 15288 ft | 403 kts | 251° |
| 2026-04-20 21:45 | 13.79397 | 145.70758 | 14710 ft | 400 kts | 251° |
| 2026-04-20 21:45 | 13.78484 | 145.68062 | 14126 ft | 397 kts | 251° |
| 2026-04-20 21:45 | 13.77575 | 145.65376 | 13539 ft | 395 kts | 251° |
| 2026-04-20 21:46 | 13.76681 | 145.62738 | 12961 ft | 392 kts | 251° |
| 2026-04-20 21:46 | 13.75789 | 145.60109 | 12386 ft | 389 kts | 251° |
| 2026-04-20 21:46 | 13.74909 | 145.57512 | 11810 ft | 386 kts | 251° |
| 2026-04-20 21:46 | 13.74034 | 145.54932 | 11238 ft | 384 kts | 251° |
| 2026-04-20 21:47 | 13.73156 | 145.52345 | 10757 ft | 378 kts | 250° |
| 2026-04-20 21:47 | 13.72304 | 145.49837 | 10650 ft | 361 kts | 251° |
| 2026-04-20 21:47 | 13.71495 | 145.47453 | 10549 ft | 346 kts | 250° |
| 2026-04-20 21:47 | 13.70725 | 145.45187 | 10415 ft | 334 kts | 251° |
| 2026-04-20 21:48 | 13.69965 | 145.42952 | 10270 ft | 322 kts | 251° |
| 2026-04-20 21:48 | 13.69241 | 145.40822 | 10123 ft | 312 kts | 250° |
| 2026-04-20 21:48 | 13.68538 | 145.38754 | 9918 ft | 304 kts | 250° |
| 2026-04-20 21:48 | 13.67840 | 145.36703 | 9610 ft | 300 kts | 250° |
| 2026-04-20 21:49 | 13.67167 | 145.34726 | 9436 ft | 293 kts | 250° |
| 2026-04-20 21:49 | 13.66484 | 145.32719 | 8894 ft | 299 kts | 250° |
| 2026-04-20 21:49 | 13.65809 | 145.30737 | 8774 ft | 289 kts | 250° |
| 2026-04-20 21:49 | 13.65147 | 145.28758 | 8224 ft | 296 kts | 252° |
| 2026-04-20 21:50 | 13.64602 | 145.26712 | 7723 ft | 301 kts | 255° |
| 2026-04-20 21:50 | 13.64066 | 145.24626 | 7324 ft | 300 kts | 254° |
| 2026-04-20 21:50 | 13.63524 | 145.22578 | 6967 ft | 299 kts | 254° |
| 2026-04-20 21:50 | 13.62972 | 145.20515 | 6613 ft | 297 kts | 254° |
| 2026-04-20 21:51 | 13.62425 | 145.18486 | 6265 ft | 296 kts | 254° |
| 2026-04-20 21:51 | 13.61872 | 145.16441 | 5910 ft | 294 kts | 254° |
| 2026-04-20 21:51 | 13.61328 | 145.14427 | 5563 ft | 293 kts | 254° |
| 2026-04-20 21:51 | 13.60789 | 145.12434 | 5225 ft | 291 kts | 254° |
| 2026-04-20 21:52 | 13.60251 | 145.10443 | 4879 ft | 290 kts | 254° |
| 2026-04-20 21:52 | 13.59706 | 145.08429 | 4533 ft | 289 kts | 255° |
| 2026-04-20 21:52 | 13.59174 | 145.06462 | 4204 ft | 288 kts | 255° |
| 2026-04-20 21:52 | 13.58633 | 145.04463 | 3870 ft | 287 kts | 255° |
| 2026-04-20 21:53 | 13.58102 | 145.02501 | 3538 ft | 286 kts | 255° |
| 2026-04-20 21:53 | 13.57567 | 145.00528 | 3203 ft | 286 kts | 255° |
| 2026-04-20 21:53 | 13.56921 | 144.98625 | 2879 ft | 284 kts | 247° |
| 2026-04-20 21:53 | 13.56100 | 144.96794 | 2714 ft | 277 kts | 245° |
| 2026-04-20 21:54 | 13.55293 | 144.95044 | 2576 ft | 269 kts | 245° |
| 2026-04-20 21:54 | 13.54502 | 144.93323 | 2433 ft | 261 kts | 245° |
| 2026-04-20 21:54 | 13.53738 | 144.91653 | 2280 ft | 253 kts | 245° |
| 2026-04-20 21:54 | 13.53001 | 144.90041 | 2133 ft | 243 kts | 245° |
| 2026-04-20 21:55 | 13.52312 | 144.88531 | 1977 ft | 227 kts | 245° |
| 2026-04-20 21:55 | 13.51654 | 144.87093 | 1710 ft | 217 kts | 245° |
| 2026-04-20 21:55 | 13.51034 | 144.85738 | 1384 ft | 202 kts | 245° |
| 2026-04-20 21:55 | 13.50434 | 144.84454 | 1008 ft | 196 kts | 245° |
| 2026-04-20 21:56 | 13.49843 | 144.83237 | 790 ft | 183 kts | 245° |
| 2026-04-20 21:56 | 13.49350 | 144.82094 | 581 ft | 170 kts | 245° |
| 2026-04-20 21:56 | 13.48894 | 144.81056 | 346 ft | 152 kts | 245° |
| 2026-04-20 21:56 | 13.48495 | 144.80185 | 286 ft | 112 kts | 245° |
| 2026-04-20 21:57 | 13.48286 | 144.79723 | 279 ft | 30 kts | 246° |
| 2026-04-20 21:57 | 13.48343 | 144.79602 | 277 ft | 19 kts | 334° |
| 2026-04-20 21:57 | 13.48450 | 144.79558 | 274 ft | 15 kts | 342° |
| 2026-04-20 21:57 | 13.48540 | 144.79565 | 273 ft | 11 kts | 49° |
| 2026-04-20 21:58 | 13.48575 | 144.79629 | 274 ft | 9 kts | 64° |
| 2026-04-20 21:58 | 13.48599 | 144.79686 | 275 ft | 8 kts | 68° |
| 2026-04-20 21:58 | 13.48634 | 144.79771 | 277 ft | 18 kts | 65° |
| 2026-04-20 21:58 | 13.48702 | 144.79913 | 276 ft | 23 kts | 63° |
| 2026-04-20 21:59 | 13.48772 | 144.80058 | 277 ft | 21 kts | 64° |
| 2026-04-20 21:59 | 13.48833 | 144.80186 | 280 ft | 18 kts | 65° |
| 2026-04-20 21:59 | 13.48887 | 144.80301 | 283 ft | 16 kts | 59° |
| 2026-04-20 21:59 | 13.48964 | 144.80399 | 284 ft | 19 kts | 40° |
| 2026-04-20 22:00 | 13.49050 | 144.80515 | 286 ft | 20 kts | 62° |
| 2026-04-20 22:00 | 13.49108 | 144.80626 | 291 ft | 15 kts | 62° |
| 2026-04-20 22:00 | 13.49152 | 144.80711 | 294 ft | 12 kts | 62° |
| 2026-04-20 22:00 | 13.49185 | 144.80760 | 295 ft | 6 kts | 23° |
| 2026-04-20 22:01 | 13.49227 | 144.80747 | 291 ft | 3 kts | 330° |
| 2026-04-20 22:01 | 13.49249 | 144.80734 | 289 ft | 1 kts | 333° |
| 2026-04-20 22:01 | 13.49254 | 144.80733 | 288 ft | 0 kts | 333° |